﻿<?xml version="1.0" encoding="utf-8"?><gpx creator="Garmin Desktop App" version="1.1" xsi:schemaLocation="http://www.topografix.com/GPX/1/1 http://www.topografix.com/GPX/1/1/gpx.xsd http://www.garmin.com/xmlschemas/WaypointExtension/v1 http://www8.garmin.com/xmlschemas/WaypointExtensionv1.xsd http://www.garmin.com/xmlschemas/TrackPointExtension/v1 http://www.garmin.com/xmlschemas/TrackPointExtensionv1.xsd http://www.garmin.com/xmlschemas/GpxExtensions/v3 http://www8.garmin.com/xmlschemas/GpxExtensionsv3.xsd http://www.garmin.com/xmlschemas/ActivityExtension/v1 http://www8.garmin.com/xmlschemas/ActivityExtensionv1.xsd http://www.garmin.com/xmlschemas/AdventuresExtensions/v1 http://www8.garmin.com/xmlschemas/AdventuresExtensionv1.xsd http://www.garmin.com/xmlschemas/PressureExtension/v1 http://www.garmin.com/xmlschemas/PressureExtensionv1.xsd http://www.garmin.com/xmlschemas/TripExtensions/v1 http://www.garmin.com/xmlschemas/TripExtensionsv1.xsd http://www.garmin.com/xmlschemas/TripMetaDataExtensions/v1 http://www.garmin.com/xmlschemas/TripMetaDataExtensionsv1.xsd http://www.garmin.com/xmlschemas/ViaPointTransportationModeExtensions/v1 http://www.garmin.com/xmlschemas/ViaPointTransportationModeExtensionsv1.xsd http://www.garmin.com/xmlschemas/CreationTimeExtension/v1 http://www.garmin.com/xmlschemas/CreationTimeExtensionsv1.xsd http://www.garmin.com/xmlschemas/AccelerationExtension/v1 http://www.garmin.com/xmlschemas/AccelerationExtensionv1.xsd http://www.garmin.com/xmlschemas/PowerExtension/v1 http://www.garmin.com/xmlschemas/PowerExtensionv1.xsd http://www.garmin.com/xmlschemas/VideoExtension/v1 http://www.garmin.com/xmlschemas/VideoExtensionv1.xsd" xmlns="http://www.topografix.com/GPX/1/1" xmlns:xsi="http://www.w3.org/2001/XMLSchema-instance" xmlns:wptx1="http://www.garmin.com/xmlschemas/WaypointExtension/v1" xmlns:gpxtrx="http://www.garmin.com/xmlschemas/GpxExtensions/v3" xmlns:gpxtpx="http://www.garmin.com/xmlschemas/TrackPointExtension/v1" xmlns:gpxx="http://www.garmin.com/xmlschemas/GpxExtensions/v3" xmlns:trp="http://www.garmin.com/xmlschemas/TripExtensions/v1" xmlns:adv="http://www.garmin.com/xmlschemas/AdventuresExtensions/v1" xmlns:prs="http://www.garmin.com/xmlschemas/PressureExtension/v1" xmlns:tmd="http://www.garmin.com/xmlschemas/TripMetaDataExtensions/v1" xmlns:vptm="http://www.garmin.com/xmlschemas/ViaPointTransportationModeExtensions/v1" xmlns:ctx="http://www.garmin.com/xmlschemas/CreationTimeExtension/v1" xmlns:gpxacc="http://www.garmin.com/xmlschemas/AccelerationExtension/v1" xmlns:gpxpx="http://www.garmin.com/xmlschemas/PowerExtension/v1" xmlns:vidx1="http://www.garmin.com/xmlschemas/VideoExtension/v1">

  <metadata>
    <link href="http://www.garmin.com">
      <text>Garmin International</text>
    </link>
    <time>2019-09-08T20:10:52Z</time>
    <bounds maxlat="52.463580016046762" maxlon="4.938185010105372" minlat="52.354501029476523" minlon="4.58812303841114" />
  </metadata>

  <trk>
    <name>Track vom: 2019-09-08 10:24</name>
    <extensions>
      <gpxx:TrackExtension>
        <gpxx:DisplayColor>DarkGray</gpxx:DisplayColor>
      </gpxx:TrackExtension>
    </extensions>
    <trkseg>
      <trkpt lat="52.461802968755364" lon="4.58812303841114">
        <ele>7.35</ele>
        <time>2019-09-08T08:24:10Z</time>
      </trkpt>
      <trkpt lat="52.461803974583745" lon="4.588138964027166">
        <ele>7.83</ele>
        <time>2019-09-08T08:24:59Z</time>
      </trkpt>
      <trkpt lat="52.461889972910285" lon="4.588520005345345">
        <ele>6.39</ele>
        <time>2019-09-08T08:25:06Z</time>
      </trkpt>
      <trkpt lat="52.461614040657878" lon="4.589285021647811">
        <ele>3.98</ele>
        <time>2019-09-08T08:25:15Z</time>
      </trkpt>
      <trkpt lat="52.461572969332337" lon="4.58939197473228">
        <ele>3.98</ele>
        <time>2019-09-08T08:25:16Z</time>
      </trkpt>
      <trkpt lat="52.461528964340687" lon="4.589509991928935">
        <ele>3.98</ele>
        <time>2019-09-08T08:25:17Z</time>
      </trkpt>
      <trkpt lat="52.461024038493633" lon="4.59085201844573">
        <ele>3.98</ele>
        <time>2019-09-08T08:25:28Z</time>
      </trkpt>
      <trkpt lat="52.460538977757096" lon="4.59214098751545">
        <ele>4.46</ele>
        <time>2019-09-08T08:25:40Z</time>
      </trkpt>
      <trkpt lat="52.460033968091011" lon="4.593475973233581">
        <ele>3.5</ele>
        <time>2019-09-08T08:25:54Z</time>
      </trkpt>
      <trkpt lat="52.459834981709719" lon="4.593927003443241">
        <ele>4.94</ele>
        <time>2019-09-08T08:26:06Z</time>
      </trkpt>
      <trkpt lat="52.459796005859971" lon="4.593989029526711">
        <ele>5.91</ele>
        <time>2019-09-08T08:26:15Z</time>
      </trkpt>
      <trkpt lat="52.459759963676333" lon="4.594045020639896">
        <ele>5.91</ele>
        <time>2019-09-08T08:26:20Z</time>
      </trkpt>
      <trkpt lat="52.45955703780055" lon="4.594248030334711">
        <ele>6.87</ele>
        <time>2019-09-08T08:26:28Z</time>
      </trkpt>
      <trkpt lat="52.459289990365505" lon="4.594898968935013">
        <ele>5.42</ele>
        <time>2019-09-08T08:26:46Z</time>
      </trkpt>
      <trkpt lat="52.459060996770859" lon="4.595529036596417">
        <ele>3.98</ele>
        <time>2019-09-08T08:27:00Z</time>
      </trkpt>
      <trkpt lat="52.458829991519451" lon="4.596162959933281">
        <ele>3.5</ele>
        <time>2019-09-08T08:27:18Z</time>
      </trkpt>
      <trkpt lat="52.458675010129809" lon="4.596583982929587">
        <ele>11.19</ele>
        <time>2019-09-08T08:27:34Z</time>
      </trkpt>
      <trkpt lat="52.4585269857198" lon="4.596929987892509">
        <ele>12.15</ele>
        <time>2019-09-08T08:27:43Z</time>
      </trkpt>
      <trkpt lat="52.458481974899769" lon="4.59697499871254">
        <ele>11.67</ele>
        <time>2019-09-08T08:27:44Z</time>
      </trkpt>
      <trkpt lat="52.458438975736499" lon="4.59701799787581">
        <ele>11.67</ele>
        <time>2019-09-08T08:27:45Z</time>
      </trkpt>
      <trkpt lat="52.458365969359875" lon="4.596963012591004">
        <ele>11.19</ele>
        <time>2019-09-08T08:27:46Z</time>
      </trkpt>
      <trkpt lat="52.458320036530495" lon="4.596971981227398">
        <ele>10.710000000000001</ele>
        <time>2019-09-08T08:27:47Z</time>
      </trkpt>
      <trkpt lat="52.458276031538844" lon="4.596981033682823">
        <ele>10.710000000000001</ele>
        <time>2019-09-08T08:27:48Z</time>
      </trkpt>
      <trkpt lat="52.458234960213304" lon="4.59703803062439">
        <ele>10.710000000000001</ele>
        <time>2019-09-08T08:27:49Z</time>
      </trkpt>
      <trkpt lat="52.458205036818981" lon="4.597108019515872">
        <ele>10.23</ele>
        <time>2019-09-08T08:27:50Z</time>
      </trkpt>
      <trkpt lat="52.458204030990601" lon="4.597195023670793">
        <ele>10.23</ele>
        <time>2019-09-08T08:27:51Z</time>
      </trkpt>
      <trkpt lat="52.458215011283755" lon="4.597263000905514">
        <ele>9.75</ele>
        <time>2019-09-08T08:27:52Z</time>
      </trkpt>
      <trkpt lat="52.458258010447025" lon="4.597333995625377">
        <ele>9.75</ele>
        <time>2019-09-08T08:27:53Z</time>
      </trkpt>
      <trkpt lat="52.458279971033335" lon="4.597370959818363">
        <ele>9.27</ele>
        <time>2019-09-08T08:27:54Z</time>
      </trkpt>
      <trkpt lat="52.458409974351525" lon="4.597373977303505">
        <ele>8.789999999999999</ele>
        <time>2019-09-08T08:27:55Z</time>
      </trkpt>
      <trkpt lat="52.458459008485079" lon="4.597463998943567">
        <ele>8.310000000000001</ele>
        <time>2019-09-08T08:27:56Z</time>
      </trkpt>
      <trkpt lat="52.458512987941504" lon="4.597562989220023">
        <ele>8.310000000000001</ele>
        <time>2019-09-08T08:27:57Z</time>
      </trkpt>
      <trkpt lat="52.458574008196592" lon="4.597674971446395">
        <ele>7.83</ele>
        <time>2019-09-08T08:27:58Z</time>
      </trkpt>
      <trkpt lat="52.458971980959177" lon="4.598511988297105">
        <ele>6.87</ele>
        <time>2019-09-08T08:28:06Z</time>
      </trkpt>
      <trkpt lat="52.459217989817262" lon="4.598976010456681">
        <ele>6.87</ele>
        <time>2019-09-08T08:28:10Z</time>
      </trkpt>
      <trkpt lat="52.459267023950815" lon="4.599066032096744">
        <ele>6.39</ele>
        <time>2019-09-08T08:28:11Z</time>
      </trkpt>
      <trkpt lat="52.459356961771846" lon="4.599124034866691">
        <ele>5.91</ele>
        <time>2019-09-08T08:28:12Z</time>
      </trkpt>
      <trkpt lat="52.459443965926766" lon="4.599182037636638">
        <ele>5.42</ele>
        <time>2019-09-08T08:28:13Z</time>
      </trkpt>
      <trkpt lat="52.459528958424926" lon="4.599237022921443">
        <ele>4.94</ele>
        <time>2019-09-08T08:28:14Z</time>
      </trkpt>
      <trkpt lat="52.459610011428595" lon="4.599288990721107">
        <ele>4.94</ele>
        <time>2019-09-08T08:28:15Z</time>
      </trkpt>
      <trkpt lat="52.460587006062269" lon="4.599907994270325">
        <ele>3.5</ele>
        <time>2019-09-08T08:28:26Z</time>
      </trkpt>
      <trkpt lat="52.460668981075287" lon="4.599978988990188">
        <ele>3.5</ele>
        <time>2019-09-08T08:28:27Z</time>
      </trkpt>
      <trkpt lat="52.460741987451911" lon="4.600090971216559">
        <ele>3.5</ele>
        <time>2019-09-08T08:28:28Z</time>
      </trkpt>
      <trkpt lat="52.460817005485296" lon="4.600205970928073">
        <ele>3.5</ele>
        <time>2019-09-08T08:28:29Z</time>
      </trkpt>
      <trkpt lat="52.460893029347062" lon="4.600323988124728">
        <ele>3.5</ele>
        <time>2019-09-08T08:28:30Z</time>
      </trkpt>
      <trkpt lat="52.460943991318345" lon="4.600461032241583">
        <ele>3.5</ele>
        <time>2019-09-08T08:28:31Z</time>
      </trkpt>
      <trkpt lat="52.460999982431531" lon="4.600615007802844">
        <ele>3.5</ele>
        <time>2019-09-08T08:28:32Z</time>
      </trkpt>
      <trkpt lat="52.461054967716336" lon="4.600768983364105">
        <ele>3.5</ele>
        <time>2019-09-08T08:28:33Z</time>
      </trkpt>
      <trkpt lat="52.461223024874926" lon="4.601235017180443">
        <ele>3.5</ele>
        <time>2019-09-08T08:28:36Z</time>
      </trkpt>
      <trkpt lat="52.461282033473253" lon="4.601398967206478">
        <ele>3.5</ele>
        <time>2019-09-08T08:28:37Z</time>
      </trkpt>
      <trkpt lat="52.461930038407445" lon="4.603067971765995">
        <ele>2.54</ele>
        <time>2019-09-08T08:28:47Z</time>
      </trkpt>
      <trkpt lat="52.46286503970623" lon="4.605497969314456">
        <ele>3.02</ele>
        <time>2019-09-08T08:29:02Z</time>
      </trkpt>
      <trkpt lat="52.463154969736934" lon="4.60655702278018">
        <ele>4.46</ele>
        <time>2019-09-08T08:29:08Z</time>
      </trkpt>
      <trkpt lat="52.463444983586669" lon="4.608463989570737">
        <ele>5.91</ele>
        <time>2019-09-08T08:29:17Z</time>
      </trkpt>
      <trkpt lat="52.463458981364965" lon="4.610571032389998">
        <ele>6.39</ele>
        <time>2019-09-08T08:29:26Z</time>
      </trkpt>
      <trkpt lat="52.463473984971642" lon="4.612760972231627">
        <ele>7.35</ele>
        <time>2019-09-08T08:29:37Z</time>
      </trkpt>
      <trkpt lat="52.463495023548603" lon="4.616004014387727">
        <ele>7.35</ele>
        <time>2019-09-08T08:29:50Z</time>
      </trkpt>
      <trkpt lat="52.463520001620054" lon="4.619577974081039">
        <ele>5.91</ele>
        <time>2019-09-08T08:30:05Z</time>
      </trkpt>
      <trkpt lat="52.463541962206364" lon="4.622879019007087">
        <ele>5.42</ele>
        <time>2019-09-08T08:30:18Z</time>
      </trkpt>
      <trkpt lat="52.463566018268466" lon="4.626406962051988">
        <ele>3.98</ele>
        <time>2019-09-08T08:30:31Z</time>
      </trkpt>
      <trkpt lat="52.463580016046762" lon="4.628347959369421">
        <ele>1.58</ele>
        <time>2019-09-08T08:30:40Z</time>
      </trkpt>
      <trkpt lat="52.463512038812041" lon="4.628935027867556">
        <ele>0.62</ele>
        <time>2019-09-08T08:30:48Z</time>
      </trkpt>
      <trkpt lat="52.463440038263798" lon="4.629368958994746">
        <ele>-0.82</ele>
        <time>2019-09-08T08:31:01Z</time>
      </trkpt>
      <trkpt lat="52.463372983038425" lon="4.629597030580044">
        <ele>-1.3</ele>
        <time>2019-09-08T08:31:12Z</time>
      </trkpt>
      <trkpt lat="52.463063020259142" lon="4.63044997304678">
        <ele>-1.79</ele>
        <time>2019-09-08T08:31:20Z</time>
      </trkpt>
      <trkpt lat="52.462573014199734" lon="4.631362007930875">
        <ele>-1.79</ele>
        <time>2019-09-08T08:31:28Z</time>
      </trkpt>
      <trkpt lat="52.462348965927958" lon="4.631754029542208">
        <ele>-1.79</ele>
        <time>2019-09-08T08:31:36Z</time>
      </trkpt>
      <trkpt lat="52.462348965927958" lon="4.631754029542208">
        <ele>-1.79</ele>
        <time>2019-09-08T08:31:49Z</time>
      </trkpt>
      <trkpt lat="52.462319964542985" lon="4.63180398568511">
        <ele>-1.79</ele>
        <time>2019-09-08T08:32:09Z</time>
      </trkpt>
      <trkpt lat="52.462008995935321" lon="4.632271025329828">
        <ele>2.54</ele>
        <time>2019-09-08T08:32:16Z</time>
      </trkpt>
      <trkpt lat="52.461969014257193" lon="4.632356017827988">
        <ele>2.54</ele>
        <time>2019-09-08T08:32:17Z</time>
      </trkpt>
      <trkpt lat="52.461930038407445" lon="4.632442016154528">
        <ele>3.02</ele>
        <time>2019-09-08T08:32:18Z</time>
      </trkpt>
      <trkpt lat="52.461916962638497" lon="4.632542012259364">
        <ele>3.02</ele>
        <time>2019-09-08T08:32:19Z</time>
      </trkpt>
      <trkpt lat="52.461946969851851" lon="4.632659023627639">
        <ele>3.02</ele>
        <time>2019-09-08T08:32:20Z</time>
      </trkpt>
      <trkpt lat="52.461977982893586" lon="4.632799001410604">
        <ele>2.54</ele>
        <time>2019-09-08T08:32:21Z</time>
      </trkpt>
      <trkpt lat="52.46200698427856" lon="4.632960017770529">
        <ele>2.54</ele>
        <time>2019-09-08T08:32:22Z</time>
      </trkpt>
      <trkpt lat="52.462036991491914" lon="4.633130002766848">
        <ele>2.54</ele>
        <time>2019-09-08T08:32:23Z</time>
      </trkpt>
      <trkpt lat="52.462303033098578" lon="4.634947031736374">
        <ele>2.54</ele>
        <time>2019-09-08T08:32:32Z</time>
      </trkpt>
      <trkpt lat="52.462266990914941" lon="4.636775963008404">
        <ele>3.02</ele>
        <time>2019-09-08T08:32:41Z</time>
      </trkpt>
      <trkpt lat="52.462214017286897" lon="4.63975103572011">
        <ele>3.5</ele>
        <time>2019-09-08T08:32:56Z</time>
      </trkpt>
      <trkpt lat="52.462235977873206" lon="4.64114704169333">
        <ele>3.02</ele>
        <time>2019-09-08T08:33:03Z</time>
      </trkpt>
      <trkpt lat="52.462267996743321" lon="4.643432032316923">
        <ele>1.1</ele>
        <time>2019-09-08T08:33:15Z</time>
      </trkpt>
      <trkpt lat="52.462233966216445" lon="4.644000995904207">
        <ele>1.1</ele>
        <time>2019-09-08T08:33:18Z</time>
      </trkpt>
      <trkpt lat="52.462208988144994" lon="4.644175004214048">
        <ele>1.1</ele>
        <time>2019-09-08T08:33:19Z</time>
      </trkpt>
      <trkpt lat="52.462111003696918" lon="4.644512040540576">
        <ele>1.1</ele>
        <time>2019-09-08T08:33:21Z</time>
      </trkpt>
      <trkpt lat="52.46204998344183" lon="4.644681019708514">
        <ele>0.62</ele>
        <time>2019-09-08T08:33:22Z</time>
      </trkpt>
      <trkpt lat="52.461774973198771" lon="4.645287031307817">
        <ele>0.62</ele>
        <time>2019-09-08T08:33:26Z</time>
      </trkpt>
      <trkpt lat="52.461590990424156" lon="4.645538991317153">
        <ele>0.14</ele>
        <time>2019-09-08T08:33:28Z</time>
      </trkpt>
      <trkpt lat="52.461494011804461" lon="4.645650973543525">
        <ele>0.14</ele>
        <time>2019-09-08T08:33:29Z</time>
      </trkpt>
      <trkpt lat="52.461388986557722" lon="4.645747030153871">
        <ele>-0.34</ele>
        <time>2019-09-08T08:33:30Z</time>
      </trkpt>
      <trkpt lat="52.460765959694982" lon="4.646293027326465">
        <ele>-0.82</ele>
        <time>2019-09-08T08:33:36Z</time>
      </trkpt>
      <trkpt lat="52.46046002022922" lon="4.646568037569523">
        <ele>-0.82</ele>
        <time>2019-09-08T08:33:39Z</time>
      </trkpt>
      <trkpt lat="52.460303027182817" lon="4.646850004792213">
        <ele>-0.82</ele>
        <time>2019-09-08T08:33:41Z</time>
      </trkpt>
      <trkpt lat="52.46022499166429" lon="4.646989982575178">
        <ele>-0.82</ele>
        <time>2019-09-08T08:33:42Z</time>
      </trkpt>
      <trkpt lat="52.459787959232926" lon="4.647814007475972">
        <ele>-4.19</ele>
        <time>2019-09-08T08:33:49Z</time>
      </trkpt>
      <trkpt lat="52.459683017805219" lon="4.648018022999167">
        <ele>-8.029999999999999</ele>
        <time>2019-09-08T08:33:56Z</time>
      </trkpt>
      <trkpt lat="52.459672037512064" lon="4.648039983585477">
        <ele>-8.51</ele>
        <time>2019-09-08T08:33:57Z</time>
      </trkpt>
      <trkpt lat="52.459660973399878" lon="4.648062027990818">
        <ele>-8.51</ele>
        <time>2019-09-08T08:33:58Z</time>
      </trkpt>
      <trkpt lat="52.459628032520413" lon="4.648125981912017">
        <ele>-9.960000000000001</ele>
        <time>2019-09-08T08:34:06Z</time>
      </trkpt>
      <trkpt lat="52.459416976198554" lon="4.648569971323013">
        <ele>-9.48</ele>
        <time>2019-09-08T08:34:12Z</time>
      </trkpt>
      <trkpt lat="52.458829991519451" lon="4.649665988981724">
        <ele>-8.029999999999999</ele>
        <time>2019-09-08T08:34:21Z</time>
      </trkpt>
      <trkpt lat="52.458265973255038" lon="4.650790002197027">
        <ele>-5.15</ele>
        <time>2019-09-08T08:34:31Z</time>
      </trkpt>
      <trkpt lat="52.457850985229015" lon="4.652119958773255">
        <ele>-4.19</ele>
        <time>2019-09-08T08:34:41Z</time>
      </trkpt>
      <trkpt lat="52.457783007994294" lon="4.652741979807615">
        <ele>-4.67</ele>
        <time>2019-09-08T08:34:45Z</time>
      </trkpt>
      <trkpt lat="52.457780996337533" lon="4.653920978307724">
        <ele>-3.71</ele>
        <time>2019-09-08T08:34:54Z</time>
      </trkpt>
      <trkpt lat="52.457811003550887" lon="4.654101021587849">
        <ele>-4.19</ele>
        <time>2019-09-08T08:34:56Z</time>
      </trkpt>
      <trkpt lat="52.457826007157564" lon="4.65419297106564">
        <ele>-4.19</ele>
        <time>2019-09-08T08:34:57Z</time>
      </trkpt>
      <trkpt lat="52.457893984392285" lon="4.65474802069366">
        <ele>-4.67</ele>
        <time>2019-09-08T08:35:03Z</time>
      </trkpt>
      <trkpt lat="52.457858026027679" lon="4.65487701818347">
        <ele>-4.67</ele>
        <time>2019-09-08T08:35:04Z</time>
      </trkpt>
      <trkpt lat="52.457829024642706" lon="4.654984977096319">
        <ele>-4.67</ele>
        <time>2019-09-08T08:35:05Z</time>
      </trkpt>
      <trkpt lat="52.457762975245714" lon="4.65505002066493">
        <ele>-4.67</ele>
        <time>2019-09-08T08:35:06Z</time>
      </trkpt>
      <trkpt lat="52.457678988575935" lon="4.65513501316309">
        <ele>-4.67</ele>
        <time>2019-09-08T08:35:07Z</time>
      </trkpt>
      <trkpt lat="52.457597013562918" lon="4.655162002891302">
        <ele>-4.67</ele>
        <time>2019-09-08T08:35:08Z</time>
      </trkpt>
      <trkpt lat="52.45749500580132" lon="4.655197039246559">
        <ele>-4.67</ele>
        <time>2019-09-08T08:35:09Z</time>
      </trkpt>
      <trkpt lat="52.456416003406048" lon="4.655560981482267">
        <ele>-5.63</ele>
        <time>2019-09-08T08:35:17Z</time>
      </trkpt>
      <trkpt lat="52.454793015494943" lon="4.655985021963716">
        <ele>-5.63</ele>
        <time>2019-09-08T08:35:27Z</time>
      </trkpt>
      <trkpt lat="52.453431962057948" lon="4.656410990282893">
        <ele>-2.75</ele>
        <time>2019-09-08T08:35:36Z</time>
      </trkpt>
      <trkpt lat="52.453289972618222" lon="4.656523978337646">
        <ele>-2.75</ele>
        <time>2019-09-08T08:35:37Z</time>
      </trkpt>
      <trkpt lat="52.453145971521735" lon="4.656636966392398">
        <ele>-2.75</ele>
        <time>2019-09-08T08:35:38Z</time>
      </trkpt>
      <trkpt lat="52.453012028709054" lon="4.656776022166014">
        <ele>-2.27</ele>
        <time>2019-09-08T08:35:39Z</time>
      </trkpt>
      <trkpt lat="52.452890994027257" lon="4.656942989677191">
        <ele>-2.27</ele>
        <time>2019-09-08T08:35:40Z</time>
      </trkpt>
      <trkpt lat="52.45276995934546" lon="4.657118003815413">
        <ele>-2.27</ele>
        <time>2019-09-08T08:35:41Z</time>
      </trkpt>
      <trkpt lat="52.452669041231275" lon="4.657312966883183">
        <ele>-2.27</ele>
        <time>2019-09-08T08:35:42Z</time>
      </trkpt>
      <trkpt lat="52.452451027929783" lon="4.657666012644768">
        <ele>-2.27</ele>
        <time>2019-09-08T08:35:44Z</time>
      </trkpt>
      <trkpt lat="52.452319012954831" lon="4.657810013741255">
        <ele>-2.27</ele>
        <time>2019-09-08T08:35:45Z</time>
      </trkpt>
      <trkpt lat="52.452162019908428" lon="4.657901963219047">
        <ele>-2.27</ele>
        <time>2019-09-08T08:35:46Z</time>
      </trkpt>
      <trkpt lat="52.451989017426968" lon="4.657986033707857">
        <ele>-1.79</ele>
        <time>2019-09-08T08:35:47Z</time>
      </trkpt>
      <trkpt lat="52.451805034652352" lon="4.658074965700507">
        <ele>-1.79</ele>
        <time>2019-09-08T08:35:48Z</time>
      </trkpt>
      <trkpt lat="52.450081966817379" lon="4.659019019454718">
        <ele>1.58</ele>
        <time>2019-09-08T08:35:56Z</time>
      </trkpt>
      <trkpt lat="52.44733496569097" lon="4.660882987082005">
        <ele>2.54</ele>
        <time>2019-09-08T08:36:08Z</time>
      </trkpt>
      <trkpt lat="52.444442035630345" lon="4.66368799097836">
        <ele>1.1</ele>
        <time>2019-09-08T08:36:21Z</time>
      </trkpt>
      <trkpt lat="52.441647006198764" lon="4.666630961000919">
        <ele>-1.3</ele>
        <time>2019-09-08T08:36:34Z</time>
      </trkpt>
      <trkpt lat="52.438823981210589" lon="4.669550964608789">
        <ele>-0.82</ele>
        <time>2019-09-08T08:36:47Z</time>
      </trkpt>
      <trkpt lat="52.435783026739955" lon="4.672699961811304">
        <ele>-1.79</ele>
        <time>2019-09-08T08:37:01Z</time>
      </trkpt>
      <trkpt lat="52.433854015544057" lon="4.674718994647265">
        <ele>-4.67</ele>
        <time>2019-09-08T08:37:11Z</time>
      </trkpt>
      <trkpt lat="52.430792022496462" lon="4.677892969921231">
        <ele>-5.63</ele>
        <time>2019-09-08T08:37:27Z</time>
      </trkpt>
      <trkpt lat="52.427573958411813" lon="4.681372968479991">
        <ele>-5.15</ele>
        <time>2019-09-08T08:37:44Z</time>
      </trkpt>
      <trkpt lat="52.425477979704738" lon="4.684199010953307">
        <ele>-3.71</ele>
        <time>2019-09-08T08:37:56Z</time>
      </trkpt>
      <trkpt lat="52.423283010721207" lon="4.687971035018563">
        <ele>-3.23</ele>
        <time>2019-09-08T08:38:10Z</time>
      </trkpt>
      <trkpt lat="52.420492004603148" lon="4.692790964618325">
        <ele>3.5</ele>
        <time>2019-09-08T08:38:28Z</time>
      </trkpt>
      <trkpt lat="52.418295023962855" lon="4.695470994338393">
        <ele>2.54</ele>
        <time>2019-09-08T08:38:40Z</time>
      </trkpt>
      <trkpt lat="52.415678026154637" lon="4.697756990790367">
        <ele>-1.79</ele>
        <time>2019-09-08T08:38:53Z</time>
      </trkpt>
      <trkpt lat="52.412691973149776" lon="4.699495984241366">
        <ele>-3.71</ele>
        <time>2019-09-08T08:39:07Z</time>
      </trkpt>
      <trkpt lat="52.410218976438046" lon="4.700795011594892">
        <ele>-2.75</ele>
        <time>2019-09-08T08:39:18Z</time>
      </trkpt>
      <trkpt lat="52.40612399764359" lon="4.702951004728675">
        <ele>-1.3</ele>
        <time>2019-09-08T08:39:35Z</time>
      </trkpt>
      <trkpt lat="52.402674006298184" lon="4.704332007095218">
        <ele>-3.71</ele>
        <time>2019-09-08T08:39:49Z</time>
      </trkpt>
      <trkpt lat="52.399419983848929" lon="4.704965008422732">
        <ele>-4.67</ele>
        <time>2019-09-08T08:40:02Z</time>
      </trkpt>
      <trkpt lat="52.395408991724253" lon="4.705607984215021">
        <ele>-5.15</ele>
        <time>2019-09-08T08:40:18Z</time>
      </trkpt>
      <trkpt lat="52.390399966388941" lon="4.706403007730842">
        <ele>-0.34</ele>
        <time>2019-09-08T08:40:38Z</time>
      </trkpt>
      <trkpt lat="52.385632004588842" lon="4.70717104151845">
        <ele>10.23</ele>
        <time>2019-09-08T08:40:57Z</time>
      </trkpt>
      <trkpt lat="52.380820959806442" lon="4.707918958738446">
        <ele>7.83</ele>
        <time>2019-09-08T08:41:16Z</time>
      </trkpt>
      <trkpt lat="52.377557968720794" lon="4.708444001153112">
        <ele>0.62</ele>
        <time>2019-09-08T08:41:29Z</time>
      </trkpt>
      <trkpt lat="52.375059993937612" lon="4.708890002220869">
        <ele>3.5</ele>
        <time>2019-09-08T08:41:46Z</time>
      </trkpt>
      <trkpt lat="52.372231017798185" lon="4.711294015869498">
        <ele>3.5</ele>
        <time>2019-09-08T08:41:52Z</time>
      </trkpt>
      <trkpt lat="52.369722984731197" lon="4.715962987393141">
        <ele>-0.34</ele>
        <time>2019-09-08T08:42:07Z</time>
      </trkpt>
      <trkpt lat="52.366716982796788" lon="4.721524966880679">
        <ele>-3.71</ele>
        <time>2019-09-08T08:42:25Z</time>
      </trkpt>
      <trkpt lat="52.363341003656387" lon="4.727593967691064">
        <ele>-4.19</ele>
        <time>2019-09-08T08:42:45Z</time>
      </trkpt>
      <trkpt lat="52.360993986949325" lon="4.731872007250786">
        <ele>-2.75</ele>
        <time>2019-09-08T08:43:06Z</time>
      </trkpt>
      <trkpt lat="52.357311984524131" lon="4.738690014928579">
        <ele>-7.07</ele>
        <time>2019-09-08T08:43:21Z</time>
      </trkpt>
      <trkpt lat="52.356076994910836" lon="4.741051029413939">
        <ele>-8.029999999999999</ele>
        <time>2019-09-08T08:43:29Z</time>
      </trkpt>
      <trkpt lat="52.35574197024107" lon="4.741410026326776">
        <ele>-9</ele>
        <time>2019-09-08T08:43:32Z</time>
      </trkpt>
      <trkpt lat="52.355476012453437" lon="4.741695011034608">
        <ele>-9.48</ele>
        <time>2019-09-08T08:43:33Z</time>
      </trkpt>
      <trkpt lat="52.355324970558286" lon="4.74172099493444">
        <ele>-9.48</ele>
        <time>2019-09-08T08:43:34Z</time>
      </trkpt>
      <trkpt lat="52.355179963633418" lon="4.741746978834271">
        <ele>-9.960000000000001</ele>
        <time>2019-09-08T08:43:35Z</time>
      </trkpt>
      <trkpt lat="52.355037974193692" lon="4.741714959964156">
        <ele>-9.960000000000001</ele>
        <time>2019-09-08T08:43:36Z</time>
      </trkpt>
      <trkpt lat="52.354900008067489" lon="4.741628961637616">
        <ele>-9.48</ele>
        <time>2019-09-08T08:43:37Z</time>
      </trkpt>
      <trkpt lat="52.354775033891201" lon="4.741501975804567">
        <ele>-9.48</ele>
        <time>2019-09-08T08:43:38Z</time>
      </trkpt>
      <trkpt lat="52.354664979502559" lon="4.741336014121771">
        <ele>-9</ele>
        <time>2019-09-08T08:43:39Z</time>
      </trkpt>
      <trkpt lat="52.354590967297554" lon="4.741129986941814">
        <ele>-8.029999999999999</ele>
        <time>2019-09-08T08:43:40Z</time>
      </trkpt>
      <trkpt lat="52.354546040296555" lon="4.740894958376885">
        <ele>-7.55</ele>
        <time>2019-09-08T08:43:41Z</time>
      </trkpt>
      <trkpt lat="52.354501029476523" lon="4.740661019459367">
        <ele>-7.07</ele>
        <time>2019-09-08T08:43:42Z</time>
      </trkpt>
      <trkpt lat="52.354504968971014" lon="4.740419033914805">
        <ele>-6.59</ele>
        <time>2019-09-08T08:43:43Z</time>
      </trkpt>
      <trkpt lat="52.354528019204736" lon="4.7401740308851">
        <ele>-5.63</ele>
        <time>2019-09-08T08:43:44Z</time>
      </trkpt>
      <trkpt lat="52.354589039459825" lon="4.739947970956564">
        <ele>-5.15</ele>
        <time>2019-09-08T08:43:45Z</time>
      </trkpt>
      <trkpt lat="52.354658022522926" lon="4.739729035645723">
        <ele>-4.67</ele>
        <time>2019-09-08T08:43:46Z</time>
      </trkpt>
      <trkpt lat="52.354786014184356" lon="4.739574976265431">
        <ele>-4.19</ele>
        <time>2019-09-08T08:43:47Z</time>
      </trkpt>
      <trkpt lat="52.354922974482179" lon="4.739459976553917">
        <ele>-4.19</ele>
        <time>2019-09-08T08:43:48Z</time>
      </trkpt>
      <trkpt lat="52.355064963921905" lon="4.73935604095459">
        <ele>-3.71</ele>
        <time>2019-09-08T08:43:49Z</time>
      </trkpt>
      <trkpt lat="52.355222040787339" lon="4.73935604095459">
        <ele>-3.71</ele>
        <time>2019-09-08T08:43:50Z</time>
      </trkpt>
      <trkpt lat="52.355382973328233" lon="4.739365009590983">
        <ele>-3.23</ele>
        <time>2019-09-08T08:43:51Z</time>
      </trkpt>
      <trkpt lat="52.355540972203016" lon="4.739471040666103">
        <ele>-3.23</ele>
        <time>2019-09-08T08:43:52Z</time>
      </trkpt>
      <trkpt lat="52.355710035189986" lon="4.739583022892475">
        <ele>-2.75</ele>
        <time>2019-09-08T08:43:53Z</time>
      </trkpt>
      <trkpt lat="52.355887982994318" lon="4.739701962098479">
        <ele>-2.75</ele>
        <time>2019-09-08T08:43:54Z</time>
      </trkpt>
      <trkpt lat="52.35767500475049" lon="4.741124035790563">
        <ele>-2.27</ele>
        <time>2019-09-08T08:44:03Z</time>
      </trkpt>
      <trkpt lat="52.360207010060549" lon="4.74361002445221">
        <ele>-5.63</ele>
        <time>2019-09-08T08:44:15Z</time>
      </trkpt>
      <trkpt lat="52.362773967906833" lon="4.746894976124167">
        <ele>-9</ele>
        <time>2019-09-08T08:44:28Z</time>
      </trkpt>
      <trkpt lat="52.364025972783566" lon="4.748778976500034">
        <ele>-8.51</ele>
        <time>2019-09-08T08:44:36Z</time>
      </trkpt>
      <trkpt lat="52.365999994799495" lon="4.752075998112559">
        <ele>-5.63</ele>
        <time>2019-09-08T08:44:50Z</time>
      </trkpt>
      <trkpt lat="52.367316959425807" lon="4.75478301756084">
        <ele>-0.82</ele>
        <time>2019-09-08T08:45:00Z</time>
      </trkpt>
      <trkpt lat="52.369343033060431" lon="4.759365990757942">
        <ele>1.58</ele>
        <time>2019-09-08T08:45:14Z</time>
      </trkpt>
      <trkpt lat="52.371079009026289" lon="4.762356989085674">
        <ele>-1.79</ele>
        <time>2019-09-08T08:45:24Z</time>
      </trkpt>
      <trkpt lat="52.373331980779767" lon="4.764977004379034">
        <ele>-3.23</ele>
        <time>2019-09-08T08:45:35Z</time>
      </trkpt>
      <trkpt lat="52.375603979453444" lon="4.766671992838383">
        <ele>-0.82</ele>
        <time>2019-09-08T08:45:45Z</time>
      </trkpt>
      <trkpt lat="52.378303958103061" lon="4.767669020220637">
        <ele>1.1</ele>
        <time>2019-09-08T08:45:56Z</time>
      </trkpt>
      <trkpt lat="52.381065962836146" lon="4.767914023250341">
        <ele>0.14</ele>
        <time>2019-09-08T08:46:07Z</time>
      </trkpt>
      <trkpt lat="52.385351965203881" lon="4.76797403767705">
        <ele>4.46</ele>
        <time>2019-09-08T08:46:24Z</time>
      </trkpt>
      <trkpt lat="52.387559004127979" lon="4.76883502677083">
        <ele>2.54</ele>
        <time>2019-09-08T08:46:33Z</time>
      </trkpt>
      <trkpt lat="52.389553980901837" lon="4.770568991079927">
        <ele>2.54</ele>
        <time>2019-09-08T08:46:42Z</time>
      </trkpt>
      <trkpt lat="52.391048977151513" lon="4.772760020568967">
        <ele>2.54</ele>
        <time>2019-09-08T08:46:50Z</time>
      </trkpt>
      <trkpt lat="52.392334006726742" lon="4.775800975039601">
        <ele>1.1</ele>
        <time>2019-09-08T08:46:59Z</time>
      </trkpt>
      <trkpt lat="52.393057029694319" lon="4.778876965865493">
        <ele>1.58</ele>
        <time>2019-09-08T08:47:07Z</time>
      </trkpt>
      <trkpt lat="52.393322987481952" lon="4.782150015234947">
        <ele>3.02</ele>
        <time>2019-09-08T08:47:15Z</time>
      </trkpt>
      <trkpt lat="52.393348971381783" lon="4.787510996684432">
        <ele>3.02</ele>
        <time>2019-09-08T08:47:28Z</time>
      </trkpt>
      <trkpt lat="52.393370009958744" lon="4.794542994350195">
        <ele>3.98</ele>
        <time>2019-09-08T08:47:45Z</time>
      </trkpt>
      <trkpt lat="52.393333967775106" lon="4.801939018070698">
        <ele>3.5</ele>
        <time>2019-09-08T08:48:03Z</time>
      </trkpt>
      <trkpt lat="52.392955021932721" lon="4.806387964636087">
        <ele>8.310000000000001</ele>
        <time>2019-09-08T08:48:14Z</time>
      </trkpt>
      <trkpt lat="52.392070982605219" lon="4.812431987375021">
        <ele>12.15</ele>
        <time>2019-09-08T08:48:29Z</time>
      </trkpt>
      <trkpt lat="52.391846012324095" lon="4.816955029964447">
        <ele>8.310000000000001</ele>
        <time>2019-09-08T08:48:40Z</time>
      </trkpt>
      <trkpt lat="52.391824973747134" lon="4.823114974424243">
        <ele>3.5</ele>
        <time>2019-09-08T08:48:55Z</time>
      </trkpt>
      <trkpt lat="52.39183796569705" lon="4.831355977803469">
        <ele>4.94</ele>
        <time>2019-09-08T08:49:15Z</time>
      </trkpt>
      <trkpt lat="52.392057990655303" lon="4.835426984354854">
        <ele>6.39</ele>
        <time>2019-09-08T08:49:25Z</time>
      </trkpt>
      <trkpt lat="52.392830969765782" lon="4.837972987443209">
        <ele>6.87</ele>
        <time>2019-09-08T08:49:32Z</time>
      </trkpt>
      <trkpt lat="52.394018014892936" lon="4.840066032484174">
        <ele>9.75</ele>
        <time>2019-09-08T08:49:39Z</time>
      </trkpt>
      <trkpt lat="52.395128030329943" lon="4.842282040044665">
        <ele>12.15</ele>
        <time>2019-09-08T08:49:46Z</time>
      </trkpt>
      <trkpt lat="52.396266963332891" lon="4.844462005421519">
        <ele>11.67</ele>
        <time>2019-09-08T08:49:53Z</time>
      </trkpt>
      <trkpt lat="52.397753996774554" lon="4.846039982512593">
        <ele>9.75</ele>
        <time>2019-09-08T08:50:00Z</time>
      </trkpt>
      <trkpt lat="52.399661969393492" lon="4.848093967884779">
        <ele>2.54</ele>
        <time>2019-09-08T08:50:09Z</time>
      </trkpt>
      <trkpt lat="52.40206397138536" lon="4.851044984534383">
        <ele>0.62</ele>
        <time>2019-09-08T08:50:21Z</time>
      </trkpt>
      <trkpt lat="52.403949983417988" lon="4.85338001511991">
        <ele>-1.79</ele>
        <time>2019-09-08T08:50:31Z</time>
      </trkpt>
      <trkpt lat="52.406018972396851" lon="4.855809006839991">
        <ele>-1.3</ele>
        <time>2019-09-08T08:50:43Z</time>
      </trkpt>
      <trkpt lat="52.408264987170696" lon="4.85864301212132">
        <ele>-2.75</ele>
        <time>2019-09-08T08:50:57Z</time>
      </trkpt>
      <trkpt lat="52.410129960626364" lon="4.860809985548258">
        <ele>-12.359999999999999</ele>
        <time>2019-09-08T08:51:08Z</time>
      </trkpt>
      <trkpt lat="52.410682998597622" lon="4.861379032954574">
        <ele>-15.720000000000001</ele>
        <time>2019-09-08T08:51:11Z</time>
      </trkpt>
      <trkpt lat="52.410883996635675" lon="4.861568966880441">
        <ele>-16.690000000000001</ele>
        <time>2019-09-08T08:51:12Z</time>
      </trkpt>
      <trkpt lat="52.411083988845348" lon="4.861756972968578">
        <ele>-17.649999999999999</ele>
        <time>2019-09-08T08:51:13Z</time>
      </trkpt>
      <trkpt lat="52.41140803322196" lon="4.862064002081752">
        <ele>-18.609999999999999</ele>
        <time>2019-09-08T08:51:15Z</time>
      </trkpt>
      <trkpt lat="52.418303992599249" lon="4.868702972307801">
        <ele>-8.51</ele>
        <time>2019-09-08T08:51:47Z</time>
      </trkpt>
      <trkpt lat="52.420033011585474" lon="4.870731979608536">
        <ele>0.62</ele>
        <time>2019-09-08T08:51:56Z</time>
      </trkpt>
      <trkpt lat="52.421072032302618" lon="4.872929966077209">
        <ele>2.06</ele>
        <time>2019-09-08T08:52:04Z</time>
      </trkpt>
      <trkpt lat="52.421844005584717" lon="4.875027034431696">
        <ele>5.42</ele>
        <time>2019-09-08T08:52:11Z</time>
      </trkpt>
      <trkpt lat="52.422111975029111" lon="4.875606978312135">
        <ele>5.91</ele>
        <time>2019-09-08T08:52:13Z</time>
      </trkpt>
      <trkpt lat="52.423297008499503" lon="4.877875037491322">
        <ele>6.39</ele>
        <time>2019-09-08T08:52:21Z</time>
      </trkpt>
      <trkpt lat="52.424006033688784" lon="4.880332024767995">
        <ele>7.35</ele>
        <time>2019-09-08T08:52:28Z</time>
      </trkpt>
      <trkpt lat="52.424680022522807" lon="4.8842310346663">
        <ele>5.42</ele>
        <time>2019-09-08T08:52:38Z</time>
      </trkpt>
      <trkpt lat="52.424999037757516" lon="4.888735972344875">
        <ele>1.1</ele>
        <time>2019-09-08T08:52:49Z</time>
      </trkpt>
      <trkpt lat="52.424827041104436" lon="4.893294973298907">
        <ele>-1.79</ele>
        <time>2019-09-08T08:53:00Z</time>
      </trkpt>
      <trkpt lat="52.424160009250045" lon="4.89766102284193">
        <ele>-2.75</ele>
        <time>2019-09-08T08:53:11Z</time>
      </trkpt>
      <trkpt lat="52.423039013519883" lon="4.901802018284798">
        <ele>-1.79</ele>
        <time>2019-09-08T08:53:22Z</time>
      </trkpt>
      <trkpt lat="52.421500012278557" lon="4.905578987672925">
        <ele>-1.79</ele>
        <time>2019-09-08T08:53:33Z</time>
      </trkpt>
      <trkpt lat="52.420000992715359" lon="4.908885983750224">
        <ele>1.1</ele>
        <time>2019-09-08T08:53:43Z</time>
      </trkpt>
      <trkpt lat="52.418402982875705" lon="4.912597993388772">
        <ele>5.91</ele>
        <time>2019-09-08T08:53:54Z</time>
      </trkpt>
      <trkpt lat="52.416974036023021" lon="4.916522987186909">
        <ele>4.46</ele>
        <time>2019-09-08T08:54:05Z</time>
      </trkpt>
      <trkpt lat="52.415674002841115" lon="4.919754965230823">
        <ele>2.06</ele>
        <time>2019-09-08T08:54:15Z</time>
      </trkpt>
      <trkpt lat="52.413713978603482" lon="4.924039961770177">
        <ele>0.62</ele>
        <time>2019-09-08T08:54:29Z</time>
      </trkpt>
      <trkpt lat="52.412073975428939" lon="4.927413007244468">
        <ele>4.46</ele>
        <time>2019-09-08T08:54:41Z</time>
      </trkpt>
      <trkpt lat="52.410430032759905" lon="4.930623024702072">
        <ele>7.35</ele>
        <time>2019-09-08T08:54:53Z</time>
      </trkpt>
      <trkpt lat="52.408946016803384" lon="4.933378994464874">
        <ele>4.94</ele>
        <time>2019-09-08T08:55:03Z</time>
      </trkpt>
      <trkpt lat="52.407717984169722" lon="4.936064975336194">
        <ele>3.98</ele>
        <time>2019-09-08T08:55:13Z</time>
      </trkpt>
      <trkpt lat="52.407178021967411" lon="4.93728001601994">
        <ele>2.54</ele>
        <time>2019-09-08T08:55:20Z</time>
      </trkpt>
      <trkpt lat="52.406826987862587" lon="4.938055006787181">
        <ele>3.98</ele>
        <time>2019-09-08T08:55:27Z</time>
      </trkpt>
      <trkpt lat="52.406692961230874" lon="4.938185010105372">
        <ele>3.5</ele>
        <time>2019-09-08T08:55:28Z</time>
      </trkpt>
      <trkpt lat="52.406640993431211" lon="4.938114015385509">
        <ele>3.02</ele>
        <time>2019-09-08T08:55:29Z</time>
      </trkpt>
      <trkpt lat="52.406577039510012" lon="4.938028017058969">
        <ele>2.54</ele>
        <time>2019-09-08T08:55:30Z</time>
      </trkpt>
      <trkpt lat="52.406511995941401" lon="4.937939001247287">
        <ele>2.06</ele>
        <time>2019-09-08T08:55:31Z</time>
      </trkpt>
      <trkpt lat="52.406444018706679" lon="4.937845040112734">
        <ele>1.1</ele>
        <time>2019-09-08T08:55:32Z</time>
      </trkpt>
      <trkpt lat="52.406365983188152" lon="4.937740014865995">
        <ele>0.62</ele>
        <time>2019-09-08T08:55:33Z</time>
      </trkpt>
      <trkpt lat="52.405599961057305" lon="4.936582976952195">
        <ele>0.14</ele>
        <time>2019-09-08T08:55:41Z</time>
      </trkpt>
      <trkpt lat="52.404110999777913" lon="4.934662012383342">
        <ele>4.94</ele>
        <time>2019-09-08T08:55:52Z</time>
      </trkpt>
      <trkpt lat="52.401944026350975" lon="4.932006038725376">
        <ele>5.91</ele>
        <time>2019-09-08T08:56:07Z</time>
      </trkpt>
      <trkpt lat="52.400218024849892" lon="4.92982498370111">
        <ele>5.91</ele>
        <time>2019-09-08T08:56:19Z</time>
      </trkpt>
      <trkpt lat="52.398393033072352" lon="4.927574023604393">
        <ele>9.75</ele>
        <time>2019-09-08T08:56:32Z</time>
      </trkpt>
      <trkpt lat="52.396203009411693" lon="4.925154000520706">
        <ele>7.35</ele>
        <time>2019-09-08T08:56:47Z</time>
      </trkpt>
      <trkpt lat="52.394321020692587" lon="4.923651963472366">
        <ele>0.14</ele>
        <time>2019-09-08T08:56:59Z</time>
      </trkpt>
      <trkpt lat="52.393213016912341" lon="4.922897005453706">
        <ele>-2.75</ele>
        <time>2019-09-08T08:57:06Z</time>
      </trkpt>
      <trkpt lat="52.393063986673951" lon="4.922800026834011">
        <ele>-2.75</ele>
        <time>2019-09-08T08:57:07Z</time>
      </trkpt>
      <trkpt lat="52.391477962955832" lon="4.921635026112199">
        <ele>-5.63</ele>
        <time>2019-09-08T08:57:17Z</time>
      </trkpt>
      <trkpt lat="52.391371009871364" lon="4.92148800753057">
        <ele>-6.11</ele>
        <time>2019-09-08T08:57:18Z</time>
      </trkpt>
      <trkpt lat="52.39127897657454" lon="4.921352975070477">
        <ele>-6.59</ele>
        <time>2019-09-08T08:57:19Z</time>
      </trkpt>
      <trkpt lat="52.391220973804593" lon="4.921237975358963">
        <ele>-7.07</ele>
        <time>2019-09-08T08:57:20Z</time>
      </trkpt>
      <trkpt lat="52.391203036531806" lon="4.921071007847786">
        <ele>-7.07</ele>
        <time>2019-09-08T08:57:21Z</time>
      </trkpt>
      <trkpt lat="52.391185015439987" lon="4.920902028679848">
        <ele>-7.07</ele>
        <time>2019-09-08T08:57:22Z</time>
      </trkpt>
      <trkpt lat="52.391166994348168" lon="4.920731959864497">
        <ele>-6.59</ele>
        <time>2019-09-08T08:57:23Z</time>
      </trkpt>
      <trkpt lat="52.391133969649673" lon="4.920560969039798">
        <ele>-6.11</ele>
        <time>2019-09-08T08:57:24Z</time>
      </trkpt>
      <trkpt lat="52.391099017113447" lon="4.920411016792059">
        <ele>-5.15</ele>
        <time>2019-09-08T08:57:25Z</time>
      </trkpt>
      <trkpt lat="52.391007989645004" lon="4.920323006808758">
        <ele>-4.67</ele>
        <time>2019-09-08T08:57:26Z</time>
      </trkpt>
      <trkpt lat="52.390916040167212" lon="4.920246982946992">
        <ele>-3.71</ele>
        <time>2019-09-08T08:57:27Z</time>
      </trkpt>
      <trkpt lat="52.390817971900105" lon="4.920167019590735">
        <ele>-2.75</ele>
        <time>2019-09-08T08:57:28Z</time>
      </trkpt>
      <trkpt lat="52.389975003898144" lon="4.919349029660225">
        <ele>1.1</ele>
        <time>2019-09-08T08:57:38Z</time>
      </trkpt>
      <trkpt lat="52.389840977266431" lon="4.919197987765074">
        <ele>2.06</ele>
        <time>2019-09-08T08:57:45Z</time>
      </trkpt>
      <trkpt lat="52.389809964224696" lon="4.919164041057229">
        <ele>2.54</ele>
        <time>2019-09-08T08:57:47Z</time>
      </trkpt>
      <trkpt lat="52.389670992270112" lon="4.919014004990459">
        <ele>2.06</ele>
        <time>2019-09-08T08:57:50Z</time>
      </trkpt>
      <trkpt lat="52.389632016420364" lon="4.918893976137042">
        <ele>2.06</ele>
        <time>2019-09-08T08:57:51Z</time>
      </trkpt>
      <trkpt lat="52.3896249756217" lon="4.918782999739051">
        <ele>2.06</ele>
        <time>2019-09-08T08:57:52Z</time>
      </trkpt>
      <trkpt lat="52.389618018642068" lon="4.918665988370776">
        <ele>2.06</ele>
        <time>2019-09-08T08:57:53Z</time>
      </trkpt>
      <trkpt lat="52.389654982835054" lon="4.918510001152754">
        <ele>2.06</ele>
        <time>2019-09-08T08:57:54Z</time>
      </trkpt>
      <trkpt lat="52.389696976169944" lon="4.918370023369789">
        <ele>2.54</ele>
        <time>2019-09-08T08:57:55Z</time>
      </trkpt>
      <trkpt lat="52.389742992818356" lon="4.918216969817877">
        <ele>3.02</ele>
        <time>2019-09-08T08:57:56Z</time>
      </trkpt>
      <trkpt lat="52.390340035781264" lon="4.916814006865025">
        <ele>3.5</ele>
        <time>2019-09-08T08:58:04Z</time>
      </trkpt>
      <trkpt lat="52.390950992703438" lon="4.915225971490145">
        <ele>4.94</ele>
        <time>2019-09-08T08:58:13Z</time>
      </trkpt>
      <trkpt lat="52.391588017344475" lon="4.913597032427788">
        <ele>3.98</ele>
        <time>2019-09-08T08:58:23Z</time>
      </trkpt>
      <trkpt lat="52.39179203286767" lon="4.913077019155026">
        <ele>3.02</ele>
        <time>2019-09-08T08:58:30Z</time>
      </trkpt>
      <trkpt lat="52.391830002889037" lon="4.912988003343344">
        <ele>2.54</ele>
        <time>2019-09-08T08:58:39Z</time>
      </trkpt>
      <trkpt lat="52.3919009976089" lon="4.912801003083587">
        <ele>2.54</ele>
        <time>2019-09-08T08:58:41Z</time>
      </trkpt>
      <trkpt lat="52.391933016479015" lon="4.912676028907299">
        <ele>2.54</ele>
        <time>2019-09-08T08:58:42Z</time>
      </trkpt>
      <trkpt lat="52.391933016479015" lon="4.912583995610476">
        <ele>2.54</ele>
        <time>2019-09-08T08:58:43Z</time>
      </trkpt>
      <trkpt lat="52.391916001215577" lon="4.912374028936029">
        <ele>2.54</ele>
        <time>2019-09-08T08:58:44Z</time>
      </trkpt>
      <trkpt lat="52.391856992617249" lon="4.912315020337701">
        <ele>2.54</ele>
        <time>2019-09-08T08:58:45Z</time>
      </trkpt>
      <trkpt lat="52.391793038696051" lon="4.912246959283948">
        <ele>2.06</ele>
        <time>2019-09-08T08:58:46Z</time>
      </trkpt>
      <trkpt lat="52.391292974352837" lon="4.91151999682188">
        <ele>0.14</ele>
        <time>2019-09-08T08:58:54Z</time>
      </trkpt>
      <trkpt lat="52.391208987683058" lon="4.911383958533406">
        <ele>-0.34</ele>
        <time>2019-09-08T08:58:56Z</time>
      </trkpt>
      <trkpt lat="52.391158025711775" lon="4.911231994628906">
        <ele>-0.82</ele>
        <time>2019-09-08T08:58:58Z</time>
      </trkpt>
      <trkpt lat="52.391142016276717" lon="4.911123029887676">
        <ele>-0.82</ele>
        <time>2019-09-08T08:58:59Z</time>
      </trkpt>
      <trkpt lat="52.39114997908473" lon="4.911064021289349">
        <ele>-0.82</ele>
        <time>2019-09-08T08:59:00Z</time>
      </trkpt>
      <trkpt lat="52.391158025711775" lon="4.911012975499034">
        <ele>-1.3</ele>
        <time>2019-09-08T08:59:01Z</time>
      </trkpt>
      <trkpt lat="52.391261961311102" lon="4.911024961620569">
        <ele>-0.82</ele>
        <time>2019-09-08T08:59:02Z</time>
      </trkpt>
      <trkpt lat="52.391309989616275" lon="4.911038959398866">
        <ele>-0.82</ele>
        <time>2019-09-08T08:59:03Z</time>
      </trkpt>
      <trkpt lat="52.391378972679377" lon="4.911042982712388">
        <ele>-0.34</ele>
        <time>2019-09-08T08:59:06Z</time>
      </trkpt>
      <trkpt lat="52.391423983499408" lon="4.911044994369149">
        <ele>-0.34</ele>
        <time>2019-09-08T08:59:07Z</time>
      </trkpt>
      <trkpt lat="52.39166596904397" lon="4.911058992147446">
        <ele>0.62</ele>
        <time>2019-09-08T08:59:13Z</time>
      </trkpt>
      <trkpt lat="52.391699999570847" lon="4.911053040996194">
        <ele>0.62</ele>
        <time>2019-09-08T08:59:14Z</time>
      </trkpt>
      <trkpt lat="52.391726989299059" lon="4.910990009084344">
        <ele>0.62</ele>
        <time>2019-09-08T08:59:15Z</time>
      </trkpt>
      <trkpt lat="52.391756996512413" lon="4.910921026021242">
        <ele>0.62</ele>
        <time>2019-09-08T08:59:16Z</time>
      </trkpt>
      <trkpt lat="52.391782980412245" lon="4.910862017422915">
        <ele>0.62</ele>
        <time>2019-09-08T08:59:17Z</time>
      </trkpt>
      <trkpt lat="52.391968974843621" lon="4.910411993041635">
        <ele>-0.34</ele>
        <time>2019-09-08T08:59:26Z</time>
      </trkpt>
    </trkseg>
  </trk>

</gpx>